Antares — DFJQ — position and weather

sailwx.info

Track history (hours):
 
Tides and Currents Weather Stations Pressure Air Temp Water Temp Dewpoint Dewpoint Depression Visibility Wind Speed Wind Dir Waves Ship Positions

Antares

Last reported at 2015-May-22 09:31 UTC. Time now 2015-May-22 10:06 UTC.
Position N 51°16' E 004°21'.

Length 79 m; draft 4.6 m.

Type: Ship. MMSI: 218777000.

Date/timePositionNaut miles runAvg speedWind from/ knotsBaromVisibWave heightAir tempDewpointWater temp
2015-May-22 09:31N 51°16' E 004°21'0 0.0
2015-May-22 08:33N 51°16' E 004°21'1 0.8
2015-May-22 07:33N 51°17' E 004°20'0 0.1
2015-May-22 06:34N 51°17' E 004°20'6 6.2
2015-May-22 05:33N 51°22' E 004°13'8 7.6
2015-May-22 04:33N 51°24' E 004°02'9 9.4
2015-May-22 03:33N 51°21' E 003°48'1212.3
2015-May-22 02:33N 51°28' E 003°31'1211.6
2015-May-22 01:34N 51°37' E 003°21'9 8.4
2015-May-22 00:32N 51°46' E 003°18'0 0.0
2015-May-21 23:32N 51°46' E 003°18'0 0.0
2015-May-21 22:32N 51°46' E 003°18'0 0.1
2015-May-21 21:29N 51°46' E 003°18'0 0.1
2015-May-21 20:29N 51°46' E 003°18'0 0.0
2015-May-21 19:32N 51°46' E 003°18'0 0.0
2015-May-21 18:32N 51°46' E 003°18'0 0.0
2015-May-21 17:32N 51°46' E 003°18'0 0.0
2015-May-21 16:23N 51°46' E 003°18'0 0.0
2015-May-21 15:32N 51°46' E 003°18'0 0.0
2015-May-21 14:32N 51°46' E 003°18'7 5.1
2015-May-21 13:12N 51°39' E 003°20'1 2.0
2015-May-21 12:30N 51°40' E 003°18'7 3.2
2015-May-21 10:23N 51°47' E 003°18'1112.9
2015-May-21 09:33N 51°57' E 003°19'1611.4
2015-May-21 08:11N 52°13' E 003°24'710.9
2015-May-21 07:30N 52°20' E 003°28'1310.0
2015-May-21 06:13N 52°31' E 003°39'6 9.6
2015-May-21 05:33N 52°36' E 003°44'10 9.2
2015-May-21 04:29N 52°45' E 003°52'9 9.3
2015-May-21 03:33N 52°52' E 003°58'10 9.9
2015-May-21 02:33N 53°01' E 004°07'2311.1
2015-May-21 00:30N 53°19' E 004°31'1010.9
2015-May-20 23:33N 53°28' E 004°39'9 9.5
2015-May-20 22:33N 53°31' E 004°54'9 8.8
2015-May-20 21:33N 53°34' E 005°08'8 8.4
2015-May-20 20:33N 53°37' E 005°21'8 8.3
2015-May-20 19:33N 53°40' E 005°34'9 8.5
2015-May-20 18:33N 53°43' E 005°48'10 9.8
2015-May-20 17:33N 53°46' E 006°03'19 9.3
2015-May-20 15:31N 53°45' E 006°35'2110.8
2015-May-20 13:33N 53°49' E 007°10'10 9.9
2015-May-20 12:31N 53°50' E 007°28'9 9.7
2015-May-20 11:33N 53°50' E 007°43'2 2.1
2015-May-20 10:31N 53°50' E 007°47'0 0.0
2015-May-20 09:31N 53°50' E 007°47'1 0.7
2015-May-20 08:33N 53°50' E 007°48'9 9.0
2015-May-20 07:33N 53°55' E 008°01'9 9.5
2015-May-20 06:33N 53°60' E 008°15'1212.3
2015-May-20 05:33N 53°58' E 008°36'1312.8
2015-May-20 04:33N 53°51' E 008°53'1111.3
2015-May-20 03:33N 53°53' E 009°12'9 8.8
2015-May-20 02:33N 53°47' E 009°23'8 8.5
2015-May-20 01:33N 53°40' E 009°31'8 7.6
2015-May-20 00:33N 53°34' E 009°40'8 8.0
2015-May-19 23:33N 53°33' E 009°53'3 2.7
2015-May-19 22:18N 53°31' E 009°57'0 0.0
2015-May-19 21:30N 53°31' E 009°57'0 0.0
2015-May-19 20:30N 53°31' E 009°57'0 0.0
2015-May-19 19:33N 53°31' E 009°57'0 0.0
2015-May-19 18:30N 53°31' E 009°57'0 0.0
2015-May-19 17:33N 53°31' E 009°57'0 0.0
2015-May-19 16:33N 53°31' E 009°57'0 0.0
2015-May-19 15:30N 53°31' E 009°57'0 0.0
2015-May-19 14:16N 53°31' E 009°57'0 0.0
2015-May-19 13:30N 53°31' E 009°57'0 0.0
2015-May-19 12:33N 53°31' E 009°57'0 0.0
2015-May-19 11:33N 53°31' E 009°57'0 0.0
2015-May-19 10:33N 53°31' E 009°57'0 0.0
2015-May-19 09:30N 53°31' E 009°57'0 0.0
2015-May-19 08:33N 53°31' E 009°57'0 0.0
2015-May-19 07:20N 53°31' E 009°57'0 0.0
2015-May-19 06:32N 53°31' E 009°57'0 0.0
2015-May-19 05:20N 53°31' E 009°57'0 0.0
2015-May-19 04:26N 53°31' E 009°57'0 0.0
2015-May-19 01:24N 53°31' E 009°57'1 1.2
2015-May-19 00:34N 53°31' E 009°56'1111.5
2015-May-18 23:34N 53°35' E 009°38'1312.8
2015-May-18 22:33N 53°45' E 009°25'1211.7
2015-May-18 21:34N 53°53' E 009°10'1110.8
2015-May-18 20:34N 53°50' E 008°52'5 5.1
2015-May-18 19:32N 53°52' E 008°44'0 0.0
2015-May-18 18:32N 53°52' E 008°44'0 0.0
2015-May-18 17:31N 53°52' E 008°44'0 0.0
2015-May-18 16:31N 53°52' E 008°44'0 0.0
2015-May-18 15:31N 53°52' E 008°44'0 0.0
2015-May-18 14:31N 53°52' E 008°44'0 0.4
2015-May-18 13:33N 53°53' E 008°44'9 9.4
2015-May-18 12:34N 53°58' E 008°31'1110.6
2015-May-18 11:33N 53°59' E 008°13'1110.9
2015-May-18 10:33N 53°57' E 007°55'1111.4
2015-May-18 09:33N 53°55' E 007°36'1211.7
2015-May-18 08:34N 53°52' E 007°17'3711.9
2015-May-18 05:25N 53°43' E 006°16'1011.5
2015-May-18 04:34N 53°40' E 005°60'1110.8
2015-May-18 03:33N 53°37' E 005°42'1010.1
2015-May-18 02:34N 53°33' E 005°26'10 9.5
2015-May-18 01:34N 53°30' E 005°11'9 9.5
2015-May-18 00:34N 53°27' E 004°56'9 9.4
2015-May-17 23:34N 53°22' E 004°42'10 9.7
2015-May-17 22:34N 53°14' E 004°35'10 9.6
2015-May-17 21:34N 53°05' E 004°28'10 9.7
2015-May-17 20:33N 52°57' E 004°20'9 9.5
2015-May-17 19:34N 52°48' E 004°13'10 9.7
2015-May-17 18:34N 52°40' E 004°04'1010.4
2015-May-17 17:33N 52°32' E 003°53'1110.9
2015-May-17 16:33N 52°21' E 003°52'1111.3
2015-May-17 15:34N 52°10' E 003°54'9 9.0
2015-May-17 14:34N 52°01' E 003°57'9 9.0
2015-May-17 13:34N 51°57' E 004°10'7 7.3
2015-May-17 12:33N 51°54' E 004°20'0 0.1
2015-May-17 11:33N 51°54' E 004°20'0 0.0
2015-May-17 10:30N 51°54' E 004°20'0 0.0
2015-May-17 09:30N 51°54' E 004°20'0 0.0
2015-May-17 08:33N 51°54' E 004°20'0 0.0
2015-May-17 07:33N 51°54' E 004°20'0 0.0
2015-May-17 06:33N 51°54' E 004°20'0 0.0
2015-May-17 05:33N 51°54' E 004°20'0 0.0
2015-May-17 04:33N 51°54' E 004°20'0 0.0
2015-May-17 03:33N 51°54' E 004°20'0 0.0
2015-May-17 02:33N 51°54' E 004°20'0 0.0
2015-May-17 01:33N 51°54' E 004°20'0 0.0
2015-May-17 00:33N 51°54' E 004°20'0 0.0
2015-May-16 23:33N 51°54' E 004°20'0 0.0
2015-May-16 22:30N 51°54' E 004°20'0 0.0
2015-May-16 21:30N 51°54' E 004°20'0 0.0
2015-May-16 20:33N 51°54' E 004°20'0 0.0
2015-May-16 19:30N 51°54' E 004°20'0 0.0
2015-May-16 18:33N 51°54' E 004°20'0 0.0
2015-May-16 17:33N 51°54' E 004°20'0 0.0
2015-May-16 16:15N 51°54' E 004°20'0 0.0
2015-May-16 15:33N 51°54' E 004°20'0 0.1
2015-May-16 14:34N 51°54' E 004°20'1010.3
2015-May-16 13:34N 51°59' E 004°06'1211.5
2015-May-16 12:33N 52°02' E 003°48'9 9.0
2015-May-16 11:34N 52°11' E 003°46'10 9.6
2015-May-16 10:34N 52°21' E 003°48'1111.0
2015-May-16 09:33N 52°32' E 003°51'1211.6
2015-May-16 08:34N 52°43' E 003°55'1211.7
2015-May-16 07:33N 52°55' E 003°59'1110.9
2015-May-16 06:32N 53°03' E 004°12'18 9.3
2015-May-16 04:33N 53°18' E 004°30'9 8.5
2015-May-16 03:31N 53°26' E 004°36'8 7.9
2015-May-16 02:33N 53°30' E 004°46'9 9.1
2015-May-16 01:34N 53°34' E 005°00'1110.7
2015-May-16 00:34N 53°38' E 005°17'1211.6
2015-May-15 23:34N 53°41' E 005°36'1211.6
2015-May-15 22:33N 53°44' E 005°54'1211.3
2015-May-15 21:31N 53°48' E 006°13'10 9.2
2015-May-15 20:29N 53°45' E 006°29'9 9.6
2015-May-15 19:31N 53°45' E 006°45'9 9.6
2015-May-15 18:33N 53°47' E 006°60'9 9.2
2015-May-15 17:33N 53°49' E 007°15'9 9.2
2015-May-15 16:33N 53°50' E 007°31'1010.0
2015-May-15 15:33N 53°51' E 007°47'1010.3
2015-May-15 14:34N 53°50' E 008°05'1312.7
2015-May-15 13:34N 53°41' E 008°21'1010.1
2015-May-15 12:33N 53°34' E 008°33'0 0.4
2015-May-15 11:32N 53°34' E 008°33'0 0.0
2015-May-15 10:29N 53°34' E 008°33'0 0.0
2015-May-15 09:32N 53°34' E 008°33'0 0.0
2015-May-15 08:32N 53°34' E 008°33'0 0.0
2015-May-15 07:32N 53°34' E 008°33'0 0.0
2015-May-15 06:29N 53°34' E 008°33'0 0.0
2015-May-15 05:32N 53°34' E 008°33'0 0.0
2015-May-15 04:32N 53°34' E 008°33'0 0.0
2015-May-15 03:33N 53°34' E 008°33'0 0.3
2015-May-15 02:32N 53°34' E 008°33'0 0.0
2015-May-15 01:32N 53°34' E 008°33'0 0.0
2015-May-15 00:32N 53°34' E 008°33'0 0.0
2015-May-14 23:32N 53°34' E 008°33'0 0.0
2015-May-14 22:32N 53°34' E 008°33'0 0.0
2015-May-14 21:32N 53°34' E 008°33'0 0.0
2015-May-14 20:32N 53°34' E 008°33'0 0.0
2015-May-14 19:32N 53°34' E 008°33'0 0.0
2015-May-14 18:32N 53°34' E 008°33'0 0.0
2015-May-14 17:32N 53°34' E 008°33'0 0.0
2015-May-14 16:32N 53°34' E 008°33'0 0.0
2015-May-14 15:32N 53°34' E 008°33'0 0.0
2015-May-14 14:33N 53°34' E 008°33'0 0.2
2015-May-14 13:31N 53°34' E 008°33'0 0.0
2015-May-14 12:31N 53°34' E 008°33'0 0.0
2015-May-14 11:31N 53°34' E 008°33'0 0.0
2015-May-14 10:31N 53°34' E 008°33'0 0.0
2015-May-14 09:31N 53°34' E 008°33'0 0.0
2015-May-14 08:31N 53°34' E 008°33'0 0.0
2015-May-14 07:31N 53°34' E 008°33'0 0.0
2015-May-14 06:31N 53°34' E 008°33'0 0.0
2015-May-14 05:31N 53°34' E 008°33'0 0.4
2015-May-14 04:34N 53°34' E 008°33'4 4.5
2015-May-14 03:33N 53°37' E 008°28'1110.7
2015-May-14 02:33N 53°44' E 008°14'7 7.6
2015-May-14 01:33N 53°50' E 008°05'8 8.2
2015-May-14 00:32N 53°56' E 007°56'8 8.6
2015-May-13 23:34N 54°01' E 008°08'1110.5
2015-May-13 22:33N 53°59' E 008°25'1111.2
2015-May-13 21:33N 53°54' E 008°42'9 9.0
2015-May-13 20:34N 53°51' E 008°56'8 7.8
2015-May-13 19:33N 53°54' E 009°09'4 4.0
2015-May-13 18:34N 53°56' E 009°13'8 8.3
2015-May-13 17:34N 54°04' E 009°19'8 7.7
2015-May-13 16:32N 54°10' E 009°27'7 7.0
2015-May-13 15:34N 54°14' E 009°37'8 7.6
2015-May-13 14:33N 54°20' E 009°45'8 7.7
2015-May-13 13:33N 54°21' E 009°58'7 6.5
2015-May-13 12:33N 54°22' E 010°09'4 4.0
2015-May-13 11:34N 54°25' E 010°13'10 9.1
2015-May-13 10:27N 54°32' E 010°26'8 9.3
2015-May-13 09:33N 54°35' E 010°39'9 9.2
2015-May-13 08:33N 54°36' E 010°55'8 8.5
2015-May-13 07:33N 54°37' E 011°09'9 8.6
2015-May-13 06:33N 54°33' E 011°23'9 8.7
2015-May-13 05:33N 54°30' E 011°36'8 8.3
2015-May-13 04:33N 54°26' E 011°50'8 8.0
2015-May-13 03:34N 54°27' E 012°03'7 7.1
2015-May-13 02:33N 54°32' E 012°12'9 8.6
2015-May-13 01:34N 54°40' E 012°18'10 9.1
2015-May-13 00:28N 54°48' E 012°27'12 9.2
2015-May-12 23:08N 54°59' E 012°37'610.2
2015-May-12 22:34N 55°05' E 012°37'1010.3
2015-May-12 21:34N 55°15' E 012°38'1010.1
2015-May-12 20:34N 55°25' E 012°40'1110.5
2015-May-12 19:33N 55°36' E 012°42'6 5.8
2015-May-12 18:32N 55°41' E 012°38'0 0.0
2015-May-12 17:32N 55°41' E 012°38'0 0.0
2015-May-12 16:32N 55°41' E 012°38'0 0.0
2015-May-12 15:32N 55°41' E 012°38'0 0.0
2015-May-12 14:32N 55°41' E 012°38'0 0.0
2015-May-12 13:32N 55°41' E 012°38'0 0.0
2015-May-12 12:32N 55°41' E 012°38'0 0.0
2015-May-12 11:32N 55°41' E 012°38'0 0.0
2015-May-12 10:32N 55°41' E 012°38'0 0.0
2015-May-12 09:32N 55°41' E 012°38'  
Track history (hours):
 
Tides and Currents Weather Stations Pressure Air Temp Water Temp Dewpoint Dewpoint Depression Visibility Wind Speed Wind Dir Waves Ship Positions

Antares

Last reported at 2015-May-22 09:31 UTC. Time now 2015-May-22 10:06 UTC.
Position N 51°16' E 004°21'.

Length 79 m; draft 4.6 m.

Type: Ship. MMSI: 218777000.

Date/timePositionNaut miles runAvg speedWind from/ knotsBaromVisibWave heightAir tempDewpointWater temp
2015-May-22 09:31N 51°16' E 004°21'0 0.0
2015-May-22 08:33N 51°16' E 004°21'1 0.8
2015-May-22 07:33N 51°17' E 004°20'0 0.1
2015-May-22 06:34N 51°17' E 004°20'6 6.2
2015-May-22 05:33N 51°22' E 004°13'8 7.6
2015-May-22 04:33N 51°24' E 004°02'9 9.4
2015-May-22 03:33N 51°21' E 003°48'1212.3
2015-May-22 02:33N 51°28' E 003°31'1211.6
2015-May-22 01:34N 51°37' E 003°21'9 8.4
2015-May-22 00:32N 51°46' E 003°18'0 0.0
2015-May-21 23:32N 51°46' E 003°18'0 0.0
2015-May-21 22:32N 51°46' E 003°18'0 0.1
2015-May-21 21:29N 51°46' E 003°18'0 0.1
2015-May-21 20:29N 51°46' E 003°18'0 0.0
2015-May-21 19:32N 51°46' E 003°18'0 0.0
2015-May-21 18:32N 51°46' E 003°18'0 0.0
2015-May-21 17:32N 51°46' E 003°18'0 0.0
2015-May-21 16:23N 51°46' E 003°18'0 0.0
2015-May-21 15:32N 51°46' E 003°18'0 0.0
2015-May-21 14:32N 51°46' E 003°18'7 5.1
2015-May-21 13:12N 51°39' E 003°20'1 2.0
2015-May-21 12:30N 51°40' E 003°18'7 3.2
2015-May-21 10:23N 51°47' E 003°18'1112.9
2015-May-21 09:33N 51°57' E 003°19'1611.4
2015-May-21 08:11N 52°13' E 003°24'710.9
2015-May-21 07:30N 52°20' E 003°28'1310.0
2015-May-21 06:13N 52°31' E 003°39'6 9.6
2015-May-21 05:33N 52°36' E 003°44'10 9.2
2015-May-21 04:29N 52°45' E 003°52'9 9.3
2015-May-21 03:33N 52°52' E 003°58'10 9.9
2015-May-21 02:33N 53°01' E 004°07'2311.1
2015-May-21 00:30N 53°19' E 004°31'1010.9
2015-May-20 23:33N 53°28' E 004°39'9 9.5
2015-May-20 22:33N 53°31' E 004°54'9 8.8
2015-May-20 21:33N 53°34' E 005°08'8 8.4
2015-May-20 20:33N 53°37' E 005°21'8 8.3
2015-May-20 19:33N 53°40' E 005°34'9 8.5
2015-May-20 18:33N 53°43' E 005°48'10 9.8
2015-May-20 17:33N 53°46' E 006°03'19 9.3
2015-May-20 15:31N 53°45' E 006°35'2110.8
2015-May-20 13:33N 53°49' E 007°10'10 9.9
2015-May-20 12:31N 53°50' E 007°28'9 9.7
2015-May-20 11:33N 53°50' E 007°43'2 2.1
2015-May-20 10:31N 53°50' E 007°47'0 0.0
2015-May-20 09:31N 53°50' E 007°47'1 0.7
2015-May-20 08:33N 53°50' E 007°48'9 9.0
2015-May-20 07:33N 53°55' E 008°01'9 9.5
2015-May-20 06:33N 53°60' E 008°15'1212.3
2015-May-20 05:33N 53°58' E 008°36'1312.8
2015-May-20 04:33N 53°51' E 008°53'1111.3
2015-May-20 03:33N 53°53' E 009°12'9 8.8
2015-May-20 02:33N 53°47' E 009°23'8 8.5
2015-May-20 01:33N 53°40' E 009°31'8 7.6
2015-May-20 00:33N 53°34' E 009°40'8 8.0
2015-May-19 23:33N 53°33' E 009°53'3 2.7
2015-May-19 22:18N 53°31' E 009°57'0 0.0
2015-May-19 21:30N 53°31' E 009°57'0 0.0
2015-May-19 20:30N 53°31' E 009°57'0 0.0
2015-May-19 19:33N 53°31' E 009°57'0 0.0
2015-May-19 18:30N 53°31' E 009°57'0 0.0
2015-May-19 17:33N 53°31' E 009°57'0 0.0
2015-May-19 16:33N 53°31' E 009°57'0 0.0
2015-May-19 15:30N 53°31' E 009°57'0 0.0
2015-May-19 14:16N 53°31' E 009°57'0 0.0
2015-May-19 13:30N 53°31' E 009°57'0 0.0
2015-May-19 12:33N 53°31' E 009°57'0 0.0
2015-May-19 11:33N 53°31' E 009°57'0 0.0
2015-May-19 10:33N 53°31' E 009°57'0 0.0
2015-May-19 09:30N 53°31' E 009°57'0 0.0
2015-May-19 08:33N 53°31' E 009°57'0 0.0
2015-May-19 07:20N 53°31' E 009°57'0 0.0
2015-May-19 06:32N 53°31' E 009°57'0 0.0
2015-May-19 05:20N 53°31' E 009°57'0 0.0
2015-May-19 04:26N 53°31' E 009°57'0 0.0
2015-May-19 01:24N 53°31' E 009°57'1 1.2
2015-May-19 00:34N 53°31' E 009°56'1111.5
2015-May-18 23:34N 53°35' E 009°38'1312.8
2015-May-18 22:33N 53°45' E 009°25'1211.7
2015-May-18 21:34N 53°53' E 009°10'1110.8
2015-May-18 20:34N 53°50' E 008°52'5 5.1
2015-May-18 19:32N 53°52' E 008°44'0 0.0
2015-May-18 18:32N 53°52' E 008°44'0 0.0
2015-May-18 17:31N 53°52' E 008°44'0 0.0
2015-May-18 16:31N 53°52' E 008°44'0 0.0
2015-May-18 15:31N 53°52' E 008°44'0 0.0
2015-May-18 14:31N 53°52' E 008°44'0 0.4
2015-May-18 13:33N 53°53' E 008°44'9 9.4
2015-May-18 12:34N 53°58' E 008°31'1110.6
2015-May-18 11:33N 53°59' E 008°13'1110.9
2015-May-18 10:33N 53°57' E 007°55'1111.4
2015-May-18 09:33N 53°55' E 007°36'1211.7
2015-May-18 08:34N 53°52' E 007°17'3711.9
2015-May-18 05:25N 53°43' E 006°16'1011.5
2015-May-18 04:34N 53°40' E 005°60'1110.8
2015-May-18 03:33N 53°37' E 005°42'1010.1
2015-May-18 02:34N 53°33' E 005°26'10 9.5
2015-May-18 01:34N 53°30' E 005°11'9 9.5
2015-May-18 00:34N 53°27' E 004°56'9 9.4
2015-May-17 23:34N 53°22' E 004°42'10 9.7
2015-May-17 22:34N 53°14' E 004°35'10 9.6
2015-May-17 21:34N 53°05' E 004°28'10 9.7
2015-May-17 20:33N 52°57' E 004°20'9 9.5
2015-May-17 19:34N 52°48' E 004°13'10 9.7
2015-May-17 18:34N 52°40' E 004°04'1010.4
2015-May-17 17:33N 52°32' E 003°53'1110.9
2015-May-17 16:33N 52°21' E 003°52'1111.3
2015-May-17 15:34N 52°10' E 003°54'9 9.0
2015-May-17 14:34N 52°01' E 003°57'9 9.0
2015-May-17 13:34N 51°57' E 004°10'7 7.3
2015-May-17 12:33N 51°54' E 004°20'0 0.1
2015-May-17 11:33N 51°54' E 004°20'0 0.0
2015-May-17 10:30N 51°54' E 004°20'0 0.0
2015-May-17 09:30N 51°54' E 004°20'0 0.0
2015-May-17 08:33N 51°54' E 004°20'0 0.0
2015-May-17 07:33N 51°54' E 004°20'0 0.0
2015-May-17 06:33N 51°54' E 004°20'0 0.0
2015-May-17 05:33N 51°54' E 004°20'0 0.0
2015-May-17 04:33N 51°54' E 004°20'0 0.0
2015-May-17 03:33N 51°54' E 004°20'0 0.0
2015-May-17 02:33N 51°54' E 004°20'0 0.0
2015-May-17 01:33N 51°54' E 004°20'0 0.0
2015-May-17 00:33N 51°54' E 004°20'0 0.0
2015-May-16 23:33N 51°54' E 004°20'0 0.0
2015-May-16 22:30N 51°54' E 004°20'0 0.0
2015-May-16 21:30N 51°54' E 004°20'0 0.0
2015-May-16 20:33N 51°54' E 004°20'0 0.0
2015-May-16 19:30N 51°54' E 004°20'0 0.0
2015-May-16 18:33N 51°54' E 004°20'0 0.0
2015-May-16 17:33N 51°54' E 004°20'0 0.0
2015-May-16 16:15N 51°54' E 004°20'0 0.0
2015-May-16 15:33N 51°54' E 004°20'0 0.1
2015-May-16 14:34N 51°54' E 004°20'1010.3
2015-May-16 13:34N 51°59' E 004°06'1211.5
2015-May-16 12:33N 52°02' E 003°48'9 9.0
2015-May-16 11:34N 52°11' E 003°46'10 9.6
2015-May-16 10:34N 52°21' E 003°48'1111.0
2015-May-16 09:33N 52°32' E 003°51'1211.6
2015-May-16 08:34N 52°43' E 003°55'1211.7
2015-May-16 07:33N 52°55' E 003°59'1110.9
2015-May-16 06:32N 53°03' E 004°12'18 9.3
2015-May-16 04:33N 53°18' E 004°30'9 8.5
2015-May-16 03:31N 53°26' E 004°36'8 7.9
2015-May-16 02:33N 53°30' E 004°46'9 9.1
2015-May-16 01:34N 53°34' E 005°00'1110.7
2015-May-16 00:34N 53°38' E 005°17'1211.6
2015-May-15 23:34N 53°41' E 005°36'1211.6
2015-May-15 22:33N 53°44' E 005°54'1211.3
2015-May-15 21:31N 53°48' E 006°13'10 9.2
2015-May-15 20:29N 53°45' E 006°29'9 9.6
2015-May-15 19:31N 53°45' E 006°45'9 9.6
2015-May-15 18:33N 53°47' E 006°60'9 9.2
2015-May-15 17:33N 53°49' E 007°15'9 9.2
2015-May-15 16:33N 53°50' E 007°31'1010.0
2015-May-15 15:33N 53°51' E 007°47'1010.3
2015-May-15 14:34N 53°50' E 008°05'1312.7
2015-May-15 13:34N 53°41' E 008°21'1010.1
2015-May-15 12:33N 53°34' E 008°33'0 0.4
2015-May-15 11:32N 53°34' E 008°33'0 0.0
2015-May-15 10:29N 53°34' E 008°33'0 0.0
2015-May-15 09:32N 53°34' E 008°33'0 0.0
2015-May-15 08:32N 53°34' E 008°33'0 0.0
2015-May-15 07:32N 53°34' E 008°33'0 0.0
2015-May-15 06:29N 53°34' E 008°33'0 0.0
2015-May-15 05:32N 53°34' E 008°33'0 0.0
2015-May-15 04:32N 53°34' E 008°33'0 0.0
2015-May-15 03:33N 53°34' E 008°33'0 0.3
2015-May-15 02:32N 53°34' E 008°33'0 0.0
2015-May-15 01:32N 53°34' E 008°33'0 0.0
2015-May-15 00:32N 53°34' E 008°33'0 0.0
2015-May-14 23:32N 53°34' E 008°33'0 0.0
2015-May-14 22:32N 53°34' E 008°33'0 0.0
2015-May-14 21:32N 53°34' E 008°33'0 0.0
2015-May-14 20:32N 53°34' E 008°33'0 0.0
2015-May-14 19:32N 53°34' E 008°33'0 0.0
2015-May-14 18:32N 53°34' E 008°33'0 0.0
2015-May-14 17:32N 53°34' E 008°33'0 0.0
2015-May-14 16:32N 53°34' E 008°33'0 0.0
2015-May-14 15:32N 53°34' E 008°33'0 0.0
2015-May-14 14:33N 53°34' E 008°33'0 0.2
2015-May-14 13:31N 53°34' E 008°33'0 0.0
2015-May-14 12:31N 53°34' E 008°33'0 0.0
2015-May-14 11:31N 53°34' E 008°33'0 0.0
2015-May-14 10:31N 53°34' E 008°33'0 0.0
2015-May-14 09:31N 53°34' E 008°33'0 0.0
2015-May-14 08:31N 53°34' E 008°33'0 0.0
2015-May-14 07:31N 53°34' E 008°33'0 0.0
2015-May-14 06:31N 53°34' E 008°33'0 0.0
2015-May-14 05:31N 53°34' E 008°33'0 0.4
2015-May-14 04:34N 53°34' E 008°33'4 4.5
2015-May-14 03:33N 53°37' E 008°28'1110.7
2015-May-14 02:33N 53°44' E 008°14'7 7.6
2015-May-14 01:33N 53°50' E 008°05'8 8.2
2015-May-14 00:32N 53°56' E 007°56'8 8.6
2015-May-13 23:34N 54°01' E 008°08'1110.5
2015-May-13 22:33N 53°59' E 008°25'1111.2
2015-May-13 21:33N 53°54' E 008°42'9 9.0
2015-May-13 20:34N 53°51' E 008°56'8 7.8
2015-May-13 19:33N 53°54' E 009°09'4 4.0
2015-May-13 18:34N 53°56' E 009°13'8 8.3
2015-May-13 17:34N 54°04' E 009°19'8 7.7
2015-May-13 16:32N 54°10' E 009°27'7 7.0
2015-May-13 15:34N 54°14' E 009°37'8 7.6
2015-May-13 14:33N 54°20' E 009°45'8 7.7
2015-May-13 13:33N 54°21' E 009°58'7 6.5
2015-May-13 12:33N 54°22' E 010°09'4 4.0
2015-May-13 11:34N 54°25' E 010°13'10 9.1
2015-May-13 10:27N 54°32' E 010°26'8 9.3
2015-May-13 09:33N 54°35' E 010°39'9 9.2
2015-May-13 08:33N 54°36' E 010°55'8 8.5
2015-May-13 07:33N 54°37' E 011°09'9 8.6
2015-May-13 06:33N 54°33' E 011°23'9 8.7
2015-May-13 05:33N 54°30' E 011°36'8 8.3
2015-May-13 04:33N 54°26' E 011°50'8 8.0
2015-May-13 03:34N 54°27' E 012°03'7 7.1
2015-May-13 02:33N 54°32' E 012°12'9 8.6
2015-May-13 01:34N 54°40' E 012°18'10 9.1
2015-May-13 00:28N 54°48' E 012°27'12 9.2
2015-May-12 23:08N 54°59' E 012°37'610.2
2015-May-12 22:34N 55°05' E 012°37'1010.3
2015-May-12 21:34N 55°15' E 012°38'1010.1
2015-May-12 20:34N 55°25' E 012°40'1110.5
2015-May-12 19:33N 55°36' E 012°42'6 5.8
2015-May-12 18:32N 55°41' E 012°38'0 0.0
2015-May-12 17:32N 55°41' E 012°38'0 0.0
2015-May-12 16:32N 55°41' E 012°38'0 0.0
2015-May-12 15:32N 55°41' E 012°38'0 0.0
2015-May-12 14:32N 55°41' E 012°38'0 0.0
2015-May-12 13:32N 55°41' E 012°38'0 0.0
2015-May-12 12:32N 55°41' E 012°38'0 0.0
2015-May-12 11:32N 55°41' E 012°38'0 0.0
2015-May-12 10:32N 55°41' E 012°38'0 0.0
2015-May-12 09:32N 55°41' E 012°38'  

Dump ship's entire track history